Time;durP1;ratioP1;P1;durP2;ratioP2;P2;SDS_P1;SDS_P2;PMS_P1;PMS_P2;Temp;Humidity;BMP_temperature;BMP_pressure;BME280_temperature;BME280_humidity;BME280_pressure;Samples;Min_cycle;Max_cycle;Signal;HPM_P1;HPM_P2
2022/06/21 00:00:45;;;;;;;6.28;2.42;;;13.50;99.90;;;;;;15299096;19;20086;-75
2022/06/21 00:05:53;;;;;;;8.57;2.72;;;13.40;99.90;;;;;;15305240;19;20128;-74
2022/06/21 00:10:59;;;;;;;8.82;2.53;;;13.20;99.90;;;;;;15302100;19;20014;-75
2022/06/21 00:16:25;;;;;;;9.07;2.50;;;13.30;99.90;;;;;;15300923;19;20102;-75
2022/06/21 00:21:36;;;;;;;6.32;2.40;;;13.20;99.90;;;;;;15297930;19;20014;-75
2022/06/21 00:26:40;;;;;;;8.93;2.72;;;13.10;99.90;;;;;;15302799;19;20082;-74
2022/06/21 00:31:47;;;;;;;9.48;2.50;;;13.00;99.90;;;;;;15297789;19;20034;-75
2022/06/21 00:37:17;;;;;;;9.70;2.33;;;13.00;99.90;;;;;;15312726;19;20105;-75
2022/06/21 00:42:25;;;;;;;7.85;2.00;;;13.00;99.90;;;;;;15307867;19;20479;-75
2022/06/21 00:47:34;;;;;;;12.63;2.63;;;13.10;99.90;;;;;;15310165;19;20086;-74
2022/06/21 00:52:45;;;;;;;6.45;2.30;;;13.00;99.90;;;;;;15308793;19;20038;-74
2022/06/21 00:57:53;;;;;;;6.13;2.25;;;12.90;99.90;;;;;;15313718;19;20018;-75
2022/06/21 01:02:59;;;;;;;5.93;2.25;;;12.90;99.90;;;;;;15304618;19;20078;-74
2022/06/21 01:08:06;;;;;;;5.85;2.22;;;12.90;99.90;;;;;;15313235;19;20074;-74
2022/06/21 01:13:15;;;;;;;9.35;3.38;;;13.00;99.90;;;;;;15309358;19;20089;-75
2022/06/21 01:18:41;;;;;;;9.15;2.58;;;12.90;99.90;;;;;;15299512;19;20082;-75
2022/06/21 01:24:16;;;;;;;8.52;3.17;;;12.90;99.90;;;;;;15310020;19;20103;-75
2022/06/21 01:29:43;;;;;;;6.80;2.38;;;12.80;99.90;;;;;;15312072;19;20040;-75
2022/06/21 01:34:47;;;;;;;7.55;2.63;;;12.80;99.90;;;;;;15310760;19;20015;-75
2022/06/21 01:39:56;;;;;;;10.07;2.42;;;12.80;99.90;;;;;;15312329;19;20010;-75
2022/06/21 01:45:07;;;;;;;6.82;2.92;;;12.80;99.90;;;;;;15311450;19;20015;-75
2022/06/21 01:50:12;;;;;;;11.07;2.85;;;12.80;99.90;;;;;;15308279;19;20486;-75
2022/06/21 01:55:21;;;;;;;10.52;2.90;;;12.70;99.90;;;;;;15309073;19;20032;-75
2022/06/21 02:00:59;;;;;;;8.10;2.75;;;12.60;99.90;;;;;;15304094;19;20027;-75
2022/06/21 02:06:07;;;;;;;5.85;2.65;;;12.60;99.90;;;;;;15308495;19;20483;-74
2022/06/21 02:11:17;;;;;;;9.38;2.80;;;12.60;99.90;;;;;;15311477;19;20010;-75
2022/06/21 02:16:49;;;;;;;8.80;2.67;;;12.60;99.90;;;;;;15307373;19;20018;-74
2022/06/21 02:22:16;;;;;;;8.40;2.72;;;12.60;99.90;;;;;;15307462;19;20022;-75
2022/06/21 02:27:24;;;;;;;8.65;2.70;;;12.60;99.90;;;;;;15308724;19;20011;-75
2022/06/21 02:32:52;;;;;;;9.80;3.05;;;12.30;99.90;;;;;;15303877;19;20496;-75
2022/06/21 02:38:01;;;;;;;10.07;2.55;;;12.20;99.90;;;;;;15312195;19;20042;-75
2022/06/21 02:43:10;;;;;;;9.07;3.55;;;12.50;99.90;;;;;;15306801;19;20042;-75
2022/06/21 02:48:39;;;;;;;5.82;2.58;;;12.30;99.90;;;;;;15305058;19;20027;-76
2022/06/21 02:53:50;;;;;;;8.38;3.00;;;12.20;99.90;;;;;;15304567;19;20021;-75
2022/06/21 02:58:57;;;;;;;10.63;3.25;;;12.10;99.90;;;;;;15306518;19;20479;-74
2022/06/21 03:04:04;;;;;;;9.48;2.97;;;12.00;99.90;;;;;;15304105;19;20042;-74
2022/06/21 03:09:10;;;;;;;6.55;3.00;;;12.00;99.90;;;;;;15303778;19;20078;-75
2022/06/21 03:14:24;;;;;;;7.57;2.92;;;12.00;99.90;;;;;;15306408;19;20102;-75
2022/06/21 03:19:53;;;;;;;9.27;3.20;;;11.80;99.90;;;;;;15296706;19;20011;-75
2022/06/21 03:25:22;;;;;;;6.47;2.80;;;12.00;99.90;;;;;;15304461;19;20010;-75
2022/06/21 03:30:28;;;;;;;8.98;2.83;;;12.00;99.90;;;;;;15305780;19;20018;-76
2022/06/21 03:35:37;;;;;;;8.55;3.28;;;12.00;99.90;;;;;;15298527;19;20019;-76
2022/06/21 03:46:23;;;;;;;6.88;3.10;;;11.90;99.90;;;;;;15300833;19;20022;-75
2022/06/21 03:51:35;;;;;;;10.55;3.30;;;11.80;99.90;;;;;;15299864;19;20390;-74
2022/06/21 03:56:46;;;;;;;9.37;3.67;;;11.70;99.90;;;;;;15300264;19;20022;-75
2022/06/21 04:02:16;;;;;;;7.00;3.20;;;11.70;99.90;;;;;;15295561;19;20089;-75
2022/06/21 04:07:30;;;;;;;8.80;3.15;;;11.70;99.90;;;;;;15305053;19;20038;-75
2022/06/21 04:12:56;;;;;;;9.95;3.45;;;11.60;99.90;;;;;;15312444;19;20029;-75
2022/06/21 04:18:07;;;;;;;8.73;3.35;;;11.50;99.90;;;;;;15311012;19;20011;-75
2022/06/21 04:23:20;;;;;;;8.35;3.92;;;11.60;99.90;;;;;;15314293;19;20021;-75
2022/06/21 04:28:30;;;;;;;8.80;4.13;;;11.70;99.90;;;;;;15315030;19;20019;-74
2022/06/21 04:33:38;;;;;;;7.78;3.95;;;11.70;99.90;;;;;;15314473;19;20014;-75
2022/06/21 04:39:09;;;;;;;4.50;3.60;;;11.70;99.90;;;;;;15308725;19;20195;-75
2022/06/21 04:44:21;;;;;;;15.52;4.15;;;11.80;99.90;;;;;;15318997;19;20030;-76
2022/06/21 04:49:31;;;;;;;7.90;4.07;;;11.70;99.90;;;;;;15305169;19;20019;-75
2022/06/21 04:54:39;;;;;;;10.85;4.80;;;11.80;99.90;;;;;;15318187;19;20038;-76
2022/06/21 04:59:46;;;;;;;9.45;4.45;;;12.80;99.90;;;;;;15310342;19;20015;-76
2022/06/21 05:04:53;;;;;;;9.70;4.22;;;11.90;99.90;;;;;;15310968;19;20023;-75
2022/06/21 05:10:24;;;;;;;10.35;4.55;;;12.00;99.90;;;;;;15309222;19;20279;-74
2022/06/21 05:15:48;;;;;;;8.98;4.38;;;12.00;99.90;;;;;;15313608;19;20011;-75
2022/06/21 05:20:55;;;;;;;8.65;4.32;;;12.20;99.90;;;;;;15301719;19;20015;-74
2022/06/21 05:26:07;;;;;;;13.27;4.90;;;12.10;99.90;;;;;;15308707;19;20017;-75
2022/06/21 05:31:20;;;;;;;11.35;4.82;;;12.20;99.90;;;;;;15308189;19;20031;-76
2022/06/21 05:36:30;;;;;;;10.07;4.55;;;12.30;99.90;;;;;;15306146;19;20345;-76
2022/06/21 05:41:43;;;;;;;9.48;4.72;;;12.30;99.90;;;;;;15306173;19;20019;-77
2022/06/21 05:47:10;;;;;;;10.05;4.47;;;12.30;99.90;;;;;;15313306;19;20041;-77
2022/06/21 05:52:19;;;;;;;8.02;4.32;;;12.30;99.90;;;;;;15302792;19;20030;-75
2022/06/21 05:57:31;;;;;;;10.13;4.82;;;12.30;99.90;;;;;;15314645;19;20471;-77
2022/06/21 06:02:41;;;;;;;13.07;4.38;;;12.40;99.90;;;;;;15302687;19;20055;-77
2022/06/21 06:07:48;;;;;;;9.88;4.40;;;12.50;99.90;;;;;;15303245;19;20037;-77
2022/06/21 06:13:18;;;;;;;7.63;3.55;;;12.70;99.90;;;;;;15277224;19;20010;-75
2022/06/21 06:18:26;;;;;;;7.78;2.80;;;12.80;99.90;;;;;;15309593;19;20024;-76
2022/06/21 06:23:37;;;;;;;6.20;2.50;;;12.70;99.90;;;;;;15306507;19;20017;-77
2022/06/21 06:28:52;;;;;;;4.80;2.70;;;12.80;99.90;;;;;;15309239;19;20018;-76
2022/06/21 06:34:22;;;;;;;9.20;3.85;;;12.80;99.90;;;;;;15296768;19;20364;-77
2022/06/21 06:39:46;;;;;;;6.95;2.67;;;13.00;99.90;;;;;;15304782;19;20047;-77
2022/06/21 06:45:15;;;;;;;9.02;2.60;;;13.10;99.90;;;;;;15300554;19;20006;-77
2022/06/21 06:50:43;;;;;;;7.15;2.90;;;13.40;99.90;;;;;;15300310;19;20346;-77
2022/06/21 06:56:14;;;;;;;6.80;2.90;;;13.40;99.90;;;;;;15304686;19;20345;-77
2022/06/21 07:01:25;;;;;;;5.18;2.58;;;13.20;99.90;;;;;;15299382;19;20078;-77
2022/06/21 07:06:50;;;;;;;8.77;2.75;;;13.20;99.90;;;;;;15306959;19;20022;-76
2022/06/21 07:12:02;;;;;;;5.72;2.45;;;13.30;99.90;;;;;;15308004;19;20039;-77
2022/06/21 07:17:34;;;;;;;8.00;3.05;;;13.50;99.90;;;;;;15299872;19;20078;-77
2022/06/21 07:22:39;;;;;;;8.57;2.95;;;13.10;99.90;;;;;;15294447;19;20044;-77
2022/06/21 07:27:47;;;;;;;5.28;2.33;;;13.60;99.90;;;;;;15298392;19;20014;-76
2022/06/21 07:32:58;;;;;;;7.75;2.85;;;13.60;99.90;;;;;;15302217;19;20021;-77
2022/06/21 07:38:28;;;;;;;7.60;2.45;;;13.70;99.90;;;;;;15296940;19;20028;-76
2022/06/21 07:43:55;;;;;;;6.85;2.30;;;13.90;99.90;;;;;;15295905;19;20036;-77
2022/06/21 07:49:10;;;;;;;6.85;2.40;;;13.70;99.90;;;;;;15303421;19;20018;-77
2022/06/21 07:54:40;;;;;;;7.72;2.20;;;13.50;99.90;;;;;;15299740;19;20026;-76
2022/06/21 07:59:49;;;;;;;5.25;2.20;;;13.90;99.90;;;;;;15299087;19;20074;-78
2022/06/21 08:10:23;;;;;;;7.00;2.67;;;14.10;99.90;;;;;;15296931;19;20074;-77
2022/06/21 08:15:32;;;;;;;4.13;2.53;;;14.40;99.90;;;;;;15300745;19;20591;-77
2022/06/21 08:21:03;;;;;;;4.32;2.60;;;14.30;99.90;;;;;;15299167;19;20536;-76
2022/06/21 08:26:13;;;;;;;5.53;2.53;;;14.10;99.90;;;;;;15300878;19;20039;-76
2022/06/21 08:31:22;;;;;;;6.63;2.70;;;14.30;99.90;;;;;;15300777;19;20086;-77
2022/06/21 08:36:33;;;;;;;9.77;2.53;;;14.30;99.90;;;;;;15298440;19;20018;-77
2022/06/21 08:42:23;;;;;;;5.72;2.55;;;14.50;99.90;;;;;;15296956;19;20484;-77
2022/06/21 08:47:47;;;;;;;7.55;2.20;;;14.70;99.90;;;;;;15302436;19;20014;-76
2022/06/21 08:53:24;;;;;;;7.28;2.58;;;14.70;99.90;;;;;;15298723;19;20089;-77
2022/06/21 08:58:43;;;;;;;4.85;2.20;;;14.30;99.90;;;;;;15307109;19;20018;-76
2022/06/21 09:04:26;;;;;;;5.47;2.50;;;14.60;99.90;;;;;;15306236;19;20027;-77
2022/06/21 09:10:12;;;;;;;5.10;2.28;;;15.00;99.90;;;;;;15310451;19;20374;-77
2022/06/21 09:15:30;;;;;;;5.05;2.08;;;15.20;99.90;;;;;;15305233;19;20083;-77
2022/06/21 09:20:41;;;;;;;8.05;2.50;;;15.50;99.90;;;;;;15300219;19;20010;-77
2022/06/21 09:26:21;;;;;;;5.18;2.50;;;15.40;99.90;;;;;;15306543;19;20362;-77
2022/06/21 09:31:38;;;;;;;6.00;2.40;;;15.70;99.90;;;;;;15305513;19;20480;-76
2022/06/21 09:37:11;;;;;;;5.13;2.28;;;15.90;99.90;;;;;;15302812;19;20495;-76
2022/06/21 09:42:27;;;;;;;5.50;2.35;;;16.20;99.90;;;;;;15305219;19;20053;-77
2022/06/21 09:48:00;;;;;;;6.03;2.08;;;16.20;99.90;;;;;;15308692;19;20014;-76
2022/06/21 09:53:12;;;;;;;4.45;2.08;;;16.60;99.90;;;;;;15301017;19;20018;-76
2022/06/21 09:58:25;;;;;;;5.20;1.90;;;16.20;99.90;;;;;;15310059;19;20500;-76
2022/06/21 10:03:39;;;;;;;7.13;2.42;;;15.90;99.90;;;;;;15307455;19;20014;-76
2022/06/21 10:09:20;;;;;;;3.47;1.40;;;16.30;99.90;;;;;;15300066;19;20018;-76
2022/06/21 10:14:56;;;;;;;2.67;1.63;;;16.20;99.90;;;;;;15311956;19;20468;-76
2022/06/21 10:20:29;;;;;;;2.47;1.70;;;16.40;99.90;;;;;;15304243;19;20082;-76
2022/06/21 10:25:54;;;;;;;2.85;1.80;;;17.00;99.90;;;;;;15302060;19;20015;-75
2022/06/21 10:31:51;;;;;;;3.42;1.80;;;17.20;99.90;;;;;;15309045;19;20022;-76
2022/06/21 10:37:26;;;;;;;4.80;2.42;;;17.80;99.90;;;;;;15307896;19;20026;-76
2022/06/21 10:42:49;;;;;;;3.72;1.80;;;18.10;99.90;;;;;;15305168;19;20353;-75
2022/06/21 10:48:10;;;;;;;4.28;2.00;;;17.60;99.90;;;;;;15294656;19;20070;-75
2022/06/21 10:53:39;;;;;;;6.95;1.80;;;17.60;99.90;;;;;;15300586;19;20480;-74
2022/06/21 10:59:00;;;;;;;6.15;2.40;;;17.80;99.90;;;;;;15305864;19;20476;-74
2022/06/21 11:04:39;;;;;;;5.25;1.58;;;18.30;99.70;;;;;;15303394;19;20029;-73
2022/06/21 11:09:51;;;;;;;4.47;1.70;;;18.10;98.50;;;;;;15304705;19;20015;-73
2022/06/21 11:15:26;;;;;;;4.22;1.60;;;17.90;98.50;;;;;;15300299;19;20031;-74
2022/06/21 11:21:00;;;;;;;5.60;1.80;;;17.40;99.00;;;;;;15288603;19;20094;-73
2022/06/21 11:26:14;;;;;;;4.90;1.80;;;17.60;99.30;;;;;;15301494;19;20021;-74
2022/06/21 11:31:44;;;;;;;3.05;1.98;;;18.20;98.60;;;;;;15298735;19;20022;-78
2022/06/21 11:37:28;;;;;;;3.83;1.75;;;18.60;97.90;;;;;;15301157;19;20035;-79
2022/06/21 11:42:55;;;;;;;2.55;1.70;;;19.10;96.40;;;;;;15289892;19;20023;-79
2022/06/21 11:48:26;;;;;;;3.63;1.48;;;19.20;96.30;;;;;;15303349;19;20021;-79
2022/06/21 11:54:00;;;;;;;4.13;1.50;;;19.50;96.20;;;;;;15299808;19;20022;-78
2022/06/21 11:59:12;;;;;;;4.53;1.80;;;19.30;95.60;;;;;;15293580;19;20031;-79
2022/06/21 12:04:24;;;;;;;2.83;1.50;;;19.20;95.20;;;;;;15290733;19;20010;-78
2022/06/21 12:09:40;;;;;;;3.17;1.60;;;19.20;94.70;;;;;;15297913;19;20036;-78
2022/06/21 12:14:58;;;;;;;3.58;1.38;;;19.70;95.80;;;;;;15296292;19;20014;-78
2022/06/21 12:20:06;;;;;;;6.38;1.85;;;20.30;96.10;;;;;;15303732;19;20018;-80
2022/06/21 12:25:17;;;;;;;2.80;1.67;;;20.50;94.20;;;;;;15292423;19;20589;-79
2022/06/21 12:30:24;;;;;;;4.50;1.80;;;20.30;93.20;;;;;;15297345;19;20365;-79
2022/06/21 12:35:43;;;;;;;5.35;1.60;;;20.50;92.80;;;;;;15315358;19;20023;-79
2022/06/21 12:41:02;;;;;;;4.40;1.70;;;20.60;92.30;;;;;;15315759;19;20014;-79
2022/06/21 12:46:09;;;;;;;2.58;1.40;;;20.70;90.80;;;;;;15317640;19;20010;-79
2022/06/21 12:51:20;;;;;;;3.55;1.40;;;21.00;91.40;;;;;;15310368;19;20017;-79
2022/06/21 12:56:53;;;;;;;3.83;1.40;;;21.20;90.70;;;;;;15317711;19;20019;-79
2022/06/21 13:02:10;;;;;;;1.83;1.13;;;21.60;89.80;;;;;;15315739;19;20535;-79
2022/06/21 13:07:32;;;;;;;2.45;1.65;;;21.90;88.80;;;;;;15310055;19;20014;-79
2022/06/21 13:13:00;;;;;;;5.53;1.70;;;21.90;82.50;;;;;;15315396;19;20014;-79
2022/06/21 13:18:29;;;;;;;5.22;1.90;;;21.90;81.60;;;;;;15310727;19;20353;-79
2022/06/21 13:24:05;;;;;;;3.42;1.42;;;22.20;81.40;;;;;;15302104;19;20083;-79
2022/06/21 13:29:25;;;;;;;5.43;2.03;;;22.60;84.70;;;;;;15312602;19;20028;-80
2022/06/21 13:34:53;;;;;;;3.80;1.65;;;23.00;80.90;;;;;;15306292;19;20419;-78
2022/06/21 13:40:03;;;;;;;2.70;1.40;;;22.60;80.10;;;;;;15315671;19;20078;-79
2022/06/21 13:45:29;;;;;;;4.28;1.40;;;22.30;82.80;;;;;;15313013;19;20021;-79
2022/06/21 13:51:00;;;;;;;3.83;1.30;;;22.40;81.10;;;;;;15305668;19;20492;-74
2022/06/21 13:56:08;;;;;;;2.22;1.25;;;22.40;81.00;;;;;;15296623;19;20095;-73
2022/06/21 14:01:23;;;;;;;6.38;1.70;;;22.60;81.00;;;;;;15309069;19;20672;-71
2022/06/21 14:06:32;;;;;;;3.92;1.50;;;22.80;79.10;;;;;;15310443;19;20015;-75
2022/06/21 14:12:02;;;;;;;2.25;1.45;;;23.20;76.80;;;;;;15304379;19;20337;-76
2022/06/21 14:17:19;;;;;;;3.13;1.27;;;23.20;77.00;;;;;;15309426;19;20019;-75
2022/06/21 14:22:29;;;;;;;3.63;1.58;;;23.60;74.80;;;;;;15289371;19;20022;-75
2022/06/21 14:27:58;;;;;;;3.33;1.48;;;24.20;72.80;;;;;;15307542;19;20018;-74
2022/06/21 14:33:13;;;;;;;3.60;1.40;;;24.80;71.80;;;;;;15299818;19;20394;-74
2022/06/21 14:38:45;;;;;;;3.97;1.70;;;24.60;68.70;;;;;;15293056;19;20045;-75
2022/06/21 14:43:55;;;;;;;4.40;1.42;;;24.30;68.50;;;;;;15302754;19;20090;-73
2022/06/21 14:49:10;;;;;;;4.63;1.52;;;24.00;66.70;;;;;;15298065;19;20015;-75
2022/06/21 14:54:38;;;;;;;4.63;1.60;;;24.10;66.60;;;;;;15298877;19;20023;-75
2022/06/21 15:00:14;;;;;;;5.93;1.75;;;24.30;68.20;;;;;;15303307;19;20378;-74
2022/06/21 15:05:34;;;;;;;3.33;1.63;;;23.90;68.00;;;;;;15300494;19;20010;-74
2022/06/21 15:10:41;;;;;;;7.55;3.60;;;24.20;69.50;;;;;;15303803;19;20113;-75
2022/06/21 15:16:17;;;;;;;7.47;5.07;;;24.30;67.80;;;;;;15289879;19;20011;-75
2022/06/21 15:21:44;;;;;;;6.65;2.65;;;24.60;69.00;;;;;;15296976;19;20035;-74
2022/06/21 15:27:14;;;;;;;4.03;1.77;;;25.00;68.10;;;;;;15297545;19;20082;-75
2022/06/21 15:32:25;;;;;;;4.28;1.25;;;25.30;70.50;;;;;;15296835;19;20043;-74
2022/06/21 15:37:39;;;;;;;5.00;1.90;;;25.50;71.60;;;;;;15298565;19;20018;-75
2022/06/21 15:43:07;;;;;;;5.25;1.30;;;25.80;66.40;;;;;;15285424;19;20351;-72
2022/06/21 15:53:52;;;;;;;3.05;1.40;;;26.10;70.10;;;;;;15299940;19;20025;-76
2022/06/21 15:59:19;;;;;;;3.40;1.38;;;26.40;68.80;;;;;;15282101;19;20109;-76
2022/06/21 16:04:32;;;;;;;4.30;1.38;;;26.60;67.20;;;;;;15299596;19;20525;-74
2022/06/21 16:10:01;;;;;;;3.35;1.50;;;26.70;67.40;;;;;;15318848;19;20018;-76
2022/06/21 16:15:09;;;;;;;3.17;1.30;;;26.80;67.10;;;;;;15292058;19;20015;-75
2022/06/21 16:20:16;;;;;;;6.57;1.50;;;27.10;66.60;;;;;;15291689;19;20022;-74
2022/06/21 16:25:30;;;;;;;3.95;1.48;;;27.20;66.20;;;;;;15313236;19;20017;-77
2022/06/21 16:36:41;;;;;;;5.97;2.45;;;27.50;67.90;;;;;;15306091;19;20519;-75
2022/06/21 16:47:44;;;;;;;7.25;2.58;;;27.50;67.90;;;;;;15282059;19;20089;-75
2022/06/21 16:53:22;;;;;;;8.20;2.58;;;27.30;67.70;;;;;;15282979;19;20691;-76
2022/06/21 16:58:33;;;;;;;6.88;2.25;;;26.50;68.80;;;;;;15277874;19;20507;-70
2022/06/21 17:03:41;;;;;;;5.60;2.42;;;26.20;70.60;;;;;;15288706;19;20014;-71
2022/06/21 17:09:21;;;;;;;7.65;2.30;;;26.20;70.50;;;;;;15306322;19;20014;-73
2022/06/21 17:15:06;;;;;;;5.47;2.40;;;25.40;72.00;;;;;;15307633;19;22352;-73
2022/06/21 17:20:22;;;;;;;6.43;2.67;;;24.30;74.30;;;;;;15305696;19;20082;-72
2022/06/21 17:25:26;;;;;;;6.13;2.60;;;23.80;76.90;;;;;;15308732;19;20476;-72
2022/06/21 17:30:36;;;;;;;6.03;2.55;;;23.60;78.20;;;;;;15302441;19;20014;-72
2022/06/21 17:35:45;;;;;;;7.38;2.50;;;23.70;79.80;;;;;;15301363;19;20020;-72
2022/06/21 17:40:56;;;;;;;5.82;2.60;;;24.30;79.30;;;;;;15299317;19;20018;-73
2022/06/21 17:46:07;;;;;;;6.97;2.47;;;25.00;77.10;;;;;;15303839;19;20487;-73
2022/06/21 17:51:13;;;;;;;5.90;3.00;;;24.50;76.50;;;;;;15308848;19;20479;-74
2022/06/21 17:56:21;;;;;;;4.95;2.70;;;23.90;78.90;;;;;;15301950;19;20487;-73
2022/06/21 18:01:57;;;;;;;8.55;2.78;;;23.80;79.90;;;;;;15306025;19;20022;-74
2022/06/21 18:07:07;;;;;;;5.50;2.58;;;23.80;80.50;;;;;;15304336;19;20019;-73
2022/06/21 18:12:21;;;;;;;4.75;2.72;;;23.80;81.20;;;;;;15309767;19;20023;-74
2022/06/21 18:17:39;;;;;;;6.25;2.75;;;23.70;81.50;;;;;;15311834;19;20007;-73
2022/06/21 18:22:50;;;;;;;6.32;2.45;;;23.60;81.50;;;;;;15304466;19;20010;-73
2022/06/21 18:28:25;;;;;;;6.03;2.97;;;23.90;81.20;;;;;;15298231;19;20473;-73
2022/06/21 18:33:32;;;;;;;6.93;2.95;;;23.90;80.50;;;;;;15307843;19;20010;-73
2022/06/21 18:39:09;;;;;;;8.25;3.22;;;24.00;80.00;;;;;;15308251;19;20468;-73
2022/06/21 18:44:45;;;;;;;6.00;3.08;;;24.50;80.70;;;;;;15309534;19;20027;-73
2022/06/21 18:50:02;;;;;;;8.23;3.40;;;24.60;79.80;;;;;;15301092;19;20039;-73
2022/06/21 18:55:35;;;;;;;4.97;2.95;;;24.70;78.90;;;;;;15299022;19;20039;-73
2022/06/21 19:01:04;;;;;;;7.45;2.70;;;24.30;79.30;;;;;;15309626;19;20019;-75
2022/06/21 19:11:49;;;;;;;6.87;2.77;;;23.40;81.90;;;;;;15309358;19;20026;-74
2022/06/21 19:17:14;;;;;;;4.30;2.33;;;23.90;81.50;;;;;;15297499;19;20102;-73
2022/06/21 19:22:36;;;;;;;6.93;3.25;;;24.20;80.30;;;;;;15302700;19;20024;-74
2022/06/21 19:27:52;;;;;;;4.88;2.67;;;23.90;79.50;;;;;;15301683;19;20074;-74
2022/06/21 19:33:19;;;;;;;5.97;2.80;;;23.40;80.50;;;;;;15300421;19;20360;-73
2022/06/21 19:38:43;;;;;;;6.53;2.63;;;23.50;81.20;;;;;;15305342;19;20085;-73
2022/06/21 19:44:31;;;;;;;4.18;2.40;;;23.40;80.70;;;;;;15308159;19;20014;-73
2022/06/21 19:50:15;;;;;;;6.25;2.60;;;23.20;82.00;;;;;;15305541;19;20022;-73
2022/06/21 19:55:47;;;;;;;5.50;3.10;;;22.60;83.40;;;;;;15304695;19;20078;-74
2022/06/21 20:01:25;;;;;;;5.95;2.92;;;21.70;87.40;;;;;;15306033;19;20055;-74
2022/06/21 20:06:31;;;;;;;7.13;2.80;;;21.10;90.70;;;;;;15305592;19;20112;-73
2022/06/21 20:11:45;;;;;;;5.88;2.70;;;20.80;92.00;;;;;;15306649;19;20015;-73
2022/06/21 20:17:00;;;;;;;5.47;2.95;;;20.40;93.40;;;;;;15309624;19;20088;-74
2022/06/21 20:22:35;;;;;;;5.80;2.92;;;20.20;94.90;;;;;;15303592;19;20011;-66
2022/06/21 20:28:27;;;;;;;6.47;3.00;;;20.00;96.00;;;;;;15297886;19;20035;-66
2022/06/21 20:33:34;;;;;;;7.03;3.30;;;19.80;96.80;;;;;;15275647;19;20018;-65
2022/06/21 20:38:44;;;;;;;9.57;3.45;;;19.60;97.10;;;;;;15301168;19;20017;-67
2022/06/21 20:43:57;;;;;;;7.68;3.00;;;19.40;97.40;;;;;;15296472;19;20547;-65
2022/06/21 20:49:03;;;;;;;9.10;3.50;;;19.50;97.50;;;;;;15293470;19;20476;-66
2022/06/21 20:54:25;;;;;;;7.07;3.20;;;19.40;97.30;;;;;;15308466;19;20519;-66
2022/06/21 20:59:36;;;;;;;7.35;3.72;;;19.30;97.90;;;;;;15314517;19;20464;-66
2022/06/21 21:05:07;;;;;;;8.80;4.25;;;19.10;98.40;;;;;;15309666;19;20022;-74
2022/06/21 21:10:37;;;;;;;10.48;4.70;;;18.70;98.70;;;;;;15310469;19;20029;-74
2022/06/21 21:15:49;;;;;;;6.13;3.90;;;18.90;99.10;;;;;;15307414;19;20033;-74
2022/06/21 21:20:57;;;;;;;8.43;4.20;;;18.90;99.40;;;;;;15311048;19;20398;-74
2022/06/21 21:26:07;;;;;;;13.20;4.35;;;18.50;99.60;;;;;;15307664;19;20082;-74
2022/06/21 21:31:48;;;;;;;9.35;3.97;;;18.60;99.90;;;;;;15313669;19;20483;-74
2022/06/21 21:36:59;;;;;;;6.47;3.90;;;18.30;99.90;;;;;;15307261;19;20014;-74
2022/06/21 21:42:08;;;;;;;8.57;3.78;;;18.30;99.90;;;;;;15314933;19;20011;-74
2022/06/21 21:47:34;;;;;;;8.00;3.85;;;18.10;99.90;;;;;;15310854;19;20051;-74
2022/06/21 21:52:42;;;;;;;7.93;4.53;;;17.90;99.90;;;;;;15314589;19;20011;-74
2022/06/21 21:57:48;;;;;;;11.23;5.22;;;17.90;99.90;;;;;;15312761;19;20009;-74
2022/06/21 22:03:02;;;;;;;7.95;4.85;;;17.70;99.90;;;;;;15312993;19;20082;-74
2022/06/21 22:08:16;;;;;;;9.80;5.05;;;17.80;99.90;;;;;;15314790;19;20011;-74
2022/06/21 22:13:26;;;;;;;8.02;4.72;;;17.60;99.90;;;;;;15304847;19;20345;-74
2022/06/21 22:18:59;;;;;;;9.48;5.63;;;17.60;99.90;;;;;;15302532;19;20635;-74
2022/06/21 22:24:25;;;;;;;9.23;5.32;;;17.40;99.90;;;;;;15310335;19;20035;-74
2022/06/21 22:29:31;;;;;;;7.65;4.72;;;17.40;99.90;;;;;;15305412;19;20011;-74
2022/06/21 22:34:40;;;;;;;11.48;4.88;;;17.20;99.90;;;;;;15305366;19;20039;-74
2022/06/21 22:39:48;;;;;;;8.57;5.10;;;17.20;99.90;;;;;;15307808;19;20110;-74
2022/06/21 22:44:56;;;;;;;6.75;4.80;;;17.00;99.90;;;;;;15309841;19;20018;-74
2022/06/21 22:50:27;;;;;;;12.23;5.18;;;17.00;99.90;;;;;;15301154;19;20022;-74
2022/06/21 22:55:36;;;;;;;7.00;4.90;;;16.90;99.90;;;;;;15305562;19;20025;-73
2022/06/21 23:01:05;;;;;;;8.02;4.82;;;16.90;99.90;;;;;;15302054;19;20035;-74
2022/06/21 23:06:20;;;;;;;9.32;5.13;;;16.90;99.90;;;;;;15309444;19;20022;-74
2022/06/21 23:11:26;;;;;;;10.02;5.60;;;16.60;99.90;;;;;;15306590;19;20014;-74
2022/06/21 23:16:53;;;;;;;7.53;5.10;;;16.60;99.90;;;;;;15295017;19;20074;-73
2022/06/21 23:22:05;;;;;;;10.05;5.28;;;16.10;99.90;;;;;;15304794;19;20015;-75
2022/06/21 23:27:13;;;;;;;7.10;5.20;;;16.50;99.90;;;;;;15307489;19;20010;-73
2022/06/21 23:32:41;;;;;;;8.10;5.25;;;16.50;99.90;;;;;;15299047;19;20011;-73
2022/06/21 23:37:52;;;;;;;6.93;4.88;;;16.50;99.90;;;;;;15303634;19;20014;-73
2022/06/21 23:42:57;;;;;;;9.20;5.82;;;16.10;99.90;;;;;;15304057;19;20011;-73
2022/06/21 23:48:03;;;;;;;9.95;6.05;;;16.00;99.90;;;;;;15304046;19;20497;-74
2022/06/21 23:53:30;;;;;;;7.70;5.70;;;15.90;99.90;;;;;;15302139;19;20030;-74
2022/06/21 23:58:35;;;;;;;8.88;5.32;;;15.90;99.90;;;;;;15301753;19;20015;-75
